createdAt,value
2023-05-05T00:02:19.515Z,9.42
2023-05-05T00:04:46.135Z,9.42
2023-05-05T00:07:12.908Z,9.40
2023-05-05T00:09:39.389Z,9.40
2023-05-05T00:12:06.504Z,9.37
2023-05-05T00:14:33.063Z,9.34
2023-05-05T00:17:01.198Z,9.33
2023-05-05T00:19:27.879Z,9.33
2023-05-05T00:21:54.444Z,9.30
2023-05-05T00:24:21.104Z,9.28
2023-05-05T00:26:47.572Z,9.25
2023-05-05T00:29:14.275Z,9.25
2023-05-05T00:31:40.885Z,9.23
2023-05-05T00:34:07.377Z,9.21
2023-05-05T00:36:35.348Z,9.18
2023-05-05T00:39:01.863Z,9.22
2023-05-05T00:41:28.436Z,9.21
2023-05-05T00:43:55.214Z,9.25
2023-05-05T00:46:28.035Z,9.19
2023-05-05T00:48:56.414Z,9.13
2023-05-05T00:51:24.705Z,9.14
2023-05-05T00:53:51.244Z,9.14
2023-05-05T00:56:20.248Z,9.15
2023-05-05T00:58:48.981Z,9.10
2023-05-05T01:01:16.646Z,9.04
2023-05-05T01:03:43.349Z,9.01
2023-05-05T01:06:32.069Z,9.03
2023-05-05T01:09:18.725Z,9.04
2023-05-05T01:12:00.823Z,8.96
2023-05-05T01:14:39.018Z,8.86
2023-05-05T01:17:37.109Z,8.90
2023-05-05T01:20:45.151Z,8.90
2023-05-05T01:23:30.593Z,8.86
2023-05-05T01:26:24.949Z,8.81
2023-05-05T01:29:18.368Z,8.76
2023-05-05T01:31:52.956Z,8.74
2023-05-05T01:34:24.545Z,8.72
2023-05-05T01:36:58.253Z,8.74
2023-05-05T01:39:30.333Z,8.65
2023-05-05T01:41:59.733Z,8.69
2023-05-05T01:44:28.313Z,8.64
2023-05-05T01:46:58.756Z,8.59
2023-05-05T01:49:27.104Z,8.55
2023-05-05T01:51:55.959Z,8.57
2023-05-05T01:54:24.890Z,8.60
2023-05-05T01:56:57.186Z,8.55
2023-05-05T01:59:26.497Z,8.58
2023-05-05T02:01:55.344Z,8.55
2023-05-05T02:04:23.228Z,8.49
2023-05-05T02:06:51.786Z,8.44
2023-05-05T02:09:22.621Z,8.45
2023-05-05T02:11:49.656Z,8.38
2023-05-05T02:14:19.137Z,8.41
2023-05-05T02:16:46.866Z,8.35
2023-05-05T02:19:15.389Z,8.28
2023-05-05T02:21:42.402Z,8.28
2023-05-05T02:24:09.245Z,8.29
2023-05-05T02:26:39.366Z,8.29
2023-05-05T02:29:12.936Z,8.22
2023-05-05T02:31:49.092Z,8.19
2023-05-05T02:34:24.037Z,8.11
2023-05-05T02:37:03.321Z,8.05
2023-05-05T02:39:37.205Z,7.99
2023-05-05T02:42:05.763Z,7.90
2023-05-05T02:44:33.626Z,7.86
2023-05-05T02:47:04.597Z,7.84
2023-05-05T02:49:31.782Z,7.83
2023-05-05T02:51:58.811Z,7.85
2023-05-05T02:54:26.820Z,7.90
2023-05-05T02:56:54.664Z,7.86
2023-05-05T02:59:21.323Z,7.83
2023-05-05T03:01:59.937Z,7.80
2023-05-05T03:04:35.602Z,7.79
2023-05-05T03:07:12.024Z,7.84
2023-05-05T03:09:57.281Z,7.79
2023-05-05T03:12:31.513Z,7.73
2023-05-05T03:15:00.491Z,7.72
2023-05-05T03:17:30.635Z,7.69
2023-05-05T03:19:57.606Z,7.65
2023-05-05T03:22:24.644Z,7.60
2023-05-05T03:24:51.629Z,7.63
2023-05-05T03:27:18.365Z,7.61
2023-05-05T03:29:44.794Z,7.61
2023-05-05T03:32:11.522Z,7.71
2023-05-05T03:34:38.310Z,7.76
2023-05-05T03:37:05.002Z,7.74
2023-05-05T03:39:31.737Z,7.82
2023-05-05T03:41:58.494Z,7.73
2023-05-05T03:44:25.215Z,7.70
2023-05-05T03:46:51.960Z,7.66
2023-05-05T03:49:18.716Z,7.69
2023-05-05T03:51:45.221Z,7.71
2023-05-05T03:54:11.757Z,7.73
2023-05-05T03:56:38.542Z,7.67
2023-05-05T03:59:05.253Z,7.68
2023-05-05T04:01:31.841Z,7.73
2023-05-05T04:03:58.694Z,7.69
2023-05-05T04:06:25.310Z,7.71
2023-05-05T04:08:52.878Z,7.73
2023-05-05T04:11:19.721Z,7.76
2023-05-05T04:13:46.197Z,7.82
2023-05-05T04:16:12.752Z,7.91
2023-05-05T04:18:39.545Z,7.98
2023-05-05T04:21:08.464Z,8.02
2023-05-05T04:23:35.181Z,8.07
2023-05-05T04:26:02.678Z,8.06
2023-05-05T04:28:29.321Z,8.14
2023-05-05T04:30:55.940Z,8.17
2023-05-05T04:33:22.643Z,8.15
2023-05-05T04:35:49.334Z,8.19
2023-05-05T04:38:16.197Z,8.31
2023-05-05T04:40:42.907Z,8.40
2023-05-05T04:43:09.715Z,8.44
2023-05-05T04:45:36.466Z,8.53
2023-05-05T04:48:03.036Z,8.55
2023-05-05T04:50:29.819Z,8.58
2023-05-05T04:52:56.607Z,8.61
2023-05-05T04:55:23.381Z,8.65
2023-05-05T04:57:50.154Z,8.69
2023-05-05T05:00:17.064Z,8.70
2023-05-05T05:02:43.994Z,8.71
2023-05-05T05:05:10.817Z,8.69
2023-05-05T05:07:37.660Z,8.72
2023-05-05T05:10:04.381Z,8.82
2023-05-05T05:12:33.063Z,8.86
2023-05-05T05:14:59.783Z,8.87
2023-05-05T05:17:26.372Z,8.97
2023-05-05T05:19:53.092Z,9.04
2023-05-05T05:22:19.827Z,9.05
2023-05-05T05:24:46.585Z,9.12
2023-05-05T05:27:13.725Z,9.23
2023-05-05T05:29:40.204Z,9.29
2023-05-05T05:32:07.026Z,9.37
2023-05-05T05:34:33.981Z,9.52
2023-05-05T05:37:00.643Z,9.56
2023-05-05T05:39:27.230Z,9.68
2023-05-05T05:41:53.934Z,9.75
2023-05-05T05:44:20.396Z,9.81
2023-05-05T05:46:46.975Z,9.80
2023-05-05T05:49:13.656Z,9.82
2023-05-05T05:51:40.495Z,9.98
2023-05-05T05:54:07.286Z,10.02
2023-05-05T05:56:34.148Z,10.20
2023-05-05T05:59:00.948Z,10.27
2023-05-05T06:01:27.616Z,10.29
2023-05-05T06:03:54.117Z,10.25
2023-05-05T06:06:21.154Z,10.36
2023-05-05T06:08:48.330Z,10.42
2023-05-05T06:11:14.775Z,10.40
2023-05-05T06:13:41.218Z,10.40
2023-05-05T06:16:08.304Z,10.51
2023-05-05T06:18:34.808Z,10.59
2023-05-05T06:21:01.578Z,10.62
2023-05-05T06:23:28.290Z,10.73
2023-05-05T06:25:54.964Z,10.69
2023-05-05T06:28:21.854Z,10.75
2023-05-05T06:30:48.433Z,10.75
2023-05-05T06:33:15.224Z,10.78
2023-05-05T06:35:41.866Z,10.81
2023-05-05T06:38:08.666Z,10.97
2023-05-05T06:40:35.665Z,11.12
2023-05-05T06:43:02.570Z,11.23
2023-05-05T06:45:29.115Z,11.36
2023-05-05T06:47:55.697Z,11.53
2023-05-05T06:50:22.251Z,11.71
2023-05-05T06:52:48.764Z,11.61
2023-05-05T06:55:15.173Z,11.57
2023-05-05T06:57:41.926Z,11.61
2023-05-05T07:00:09.383Z,11.63
2023-05-05T07:02:36.258Z,11.63
2023-05-05T07:05:03.065Z,11.67
2023-05-05T07:07:29.786Z,11.73
2023-05-05T07:09:56.182Z,11.79
2023-05-05T07:12:23.007Z,11.92
2023-05-05T07:14:49.787Z,12.01
2023-05-05T07:17:16.293Z,12.08
2023-05-05T07:19:42.963Z,12.26
2023-05-05T07:22:09.655Z,12.56
2023-05-05T07:24:36.528Z,12.61
2023-05-05T07:27:03.337Z,12.60
2023-05-05T07:29:31.599Z,12.51
2023-05-05T07:31:58.108Z,12.62
2023-05-05T07:34:24.772Z,12.77
2023-05-05T07:36:51.285Z,12.85
2023-05-05T07:39:17.924Z,12.94
2023-05-05T07:41:44.423Z,13.00
2023-05-05T07:44:10.932Z,13.12
2023-05-05T07:46:37.747Z,13.29
2023-05-05T07:49:04.640Z,13.38
2023-05-05T07:53:58.367Z,13.51
2023-05-05T07:56:25.200Z,13.63
2023-05-05T07:58:51.708Z,13.77
2023-05-05T08:01:18.669Z,13.76
2023-05-05T08:03:45.591Z,13.81
2023-05-05T08:06:15.098Z,14.01
2023-05-05T08:08:42.130Z,14.13
2023-05-05T08:11:08.980Z,14.22
2023-05-05T08:13:35.485Z,14.30
2023-05-05T08:16:02.203Z,14.57
2023-05-05T08:18:28.921Z,14.72
2023-05-05T08:20:55.369Z,14.87
2023-05-05T08:23:22.150Z,14.84
2023-05-05T08:25:49.845Z,14.95
2023-05-05T08:28:16.552Z,15.19
2023-05-05T08:30:43.034Z,15.21
2023-05-05T08:33:09.733Z,15.35
2023-05-05T08:35:36.676Z,15.59
2023-05-05T08:38:03.005Z,15.64
2023-05-05T08:40:33.001Z,15.73
2023-05-05T08:42:59.790Z,15.62
2023-05-05T08:45:28.074Z,15.76
2023-05-05T08:48:03.566Z,15.94
2023-05-05T08:50:31.135Z,16.17
2023-05-05T08:53:03.853Z,16.35
2023-05-05T08:55:34.610Z,16.54
2023-05-05T08:58:02.369Z,16.77
2023-05-05T09:00:31.568Z,16.94
2023-05-05T09:02:59.350Z,17.20
2023-05-05T09:05:27.259Z,17.29
2023-05-05T09:07:54.048Z,17.31
2023-05-05T09:10:20.640Z,17.46
2023-05-05T09:12:47.258Z,17.60
2023-05-05T09:15:15.193Z,17.77
2023-05-05T09:17:42.616Z,17.86
2023-05-05T09:20:11.183Z,18.02
2023-05-05T09:22:39.523Z,18.19
2023-05-05T09:25:08.838Z,18.21
2023-05-05T09:27:37.385Z,18.20
2023-05-05T09:30:06.102Z,18.37
2023-05-05T09:32:46.029Z,18.41
2023-05-05T09:35:12.969Z,18.53
2023-05-05T09:37:39.978Z,18.52
2023-05-05T09:40:07.550Z,18.49
2023-05-05T09:42:36.269Z,18.71
2023-05-05T09:45:03.525Z,18.97
2023-05-05T09:47:37.061Z,19.02
2023-05-05T09:50:03.703Z,19.15
2023-05-05T09:52:30.460Z,19.13
2023-05-05T09:54:57.399Z,19.15
2023-05-05T09:57:27.984Z,19.18
2023-05-05T09:59:56.094Z,19.48
2023-05-05T10:02:31.364Z,19.60
2023-05-05T10:05:19.793Z,19.66
2023-05-05T10:07:47.741Z,19.37
2023-05-05T10:10:16.731Z,19.48
2023-05-05T10:12:45.693Z,19.78
2023-05-05T10:15:12.581Z,19.78
2023-05-05T10:20:19.682Z,19.53
2023-05-05T10:22:57.806Z,19.60
2023-05-05T10:25:35.154Z,20.04
2023-05-05T10:28:06.566Z,20.18
2023-05-05T10:30:40.151Z,20.14
2023-05-05T10:33:30.776Z,20.38
2023-05-05T10:36:02.058Z,20.39
2023-05-05T10:38:32.370Z,20.40
2023-05-05T10:41:00.612Z,20.02
2023-05-05T10:43:28.431Z,20.20
2023-05-05T10:45:55.612Z,20.20
2023-05-05T10:48:35.720Z,20.24
2023-05-05T10:51:31.046Z,20.31
2023-05-05T10:54:38.414Z,20.46
2023-05-05T10:57:09.602Z,20.39
2023-05-05T10:59:36.251Z,20.75
2023-05-05T11:02:26.077Z,20.63
2023-05-05T11:05:17.214Z,20.64
2023-05-05T11:07:45.582Z,20.90
2023-05-05T11:10:14.494Z,21.04
2023-05-05T11:12:56.016Z,20.94
2023-05-05T11:15:28.432Z,20.71
2023-05-05T11:17:56.464Z,20.84
2023-05-05T11:20:35.252Z,21.04
2023-05-05T11:23:05.191Z,21.17
2023-05-05T11:25:52.774Z,21.54
2023-05-05T11:28:21.482Z,21.74
2023-05-05T11:30:58.248Z,21.25
2023-05-05T11:33:38.396Z,21.49
2023-05-05T11:36:08.415Z,21.53
2023-05-05T11:38:56.758Z,21.56
2023-05-05T11:41:32.308Z,21.46
2023-05-05T11:44:16.251Z,21.62
2023-05-05T11:46:51.621Z,21.84
2023-05-05T11:49:31.826Z,21.54
2023-05-05T11:52:06.207Z,21.16
2023-05-05T11:54:34.780Z,20.73
2023-05-05T11:57:02.521Z,20.55
2023-05-05T11:59:28.966Z,20.52
2023-05-05T12:01:55.528Z,20.60
2023-05-05T12:04:22.231Z,20.65
2023-05-05T12:06:48.987Z,20.88
2023-05-05T12:09:16.128Z,20.52
2023-05-05T12:11:58.900Z,20.34
2023-05-05T12:14:26.313Z,20.99
2023-05-05T12:16:56.977Z,21.14
2023-05-05T12:19:24.173Z,21.17
2023-05-05T12:21:51.017Z,21.18
2023-05-05T12:24:17.720Z,21.50
2023-05-05T12:26:44.249Z,21.25
2023-05-05T12:29:10.729Z,21.19
2023-05-05T12:31:38.960Z,21.47
2023-05-05T12:34:06.746Z,21.66
2023-05-05T12:36:34.762Z,21.57
2023-05-05T12:39:01.731Z,21.36
2023-05-05T12:41:28.448Z,21.57
2023-05-05T12:43:56.038Z,21.54
2023-05-05T12:46:23.336Z,21.52
2023-05-05T12:49:03.903Z,21.67
2023-05-05T12:51:32.195Z,21.65
2023-05-05T12:54:08.634Z,21.74
2023-05-05T12:56:39.778Z,21.88
2023-05-05T12:59:10.613Z,21.82
2023-05-05T13:01:49.205Z,22.14
2023-05-05T13:04:17.018Z,22.16
2023-05-05T13:06:45.041Z,21.85
2023-05-05T13:09:29.580Z,21.96
2023-05-05T13:11:57.690Z,22.21
2023-05-05T13:14:24.162Z,21.98
2023-05-05T13:16:50.653Z,21.95
2023-05-05T13:19:17.194Z,22.26
2023-05-05T13:21:43.670Z,22.38
2023-05-05T13:24:21.293Z,22.35
2023-05-05T13:26:52.927Z,22.26
2023-05-05T13:29:19.657Z,22.31
2023-05-05T13:31:46.250Z,21.85
2023-05-05T13:34:12.841Z,22.00
2023-05-05T13:36:39.312Z,21.78
2023-05-05T13:39:05.926Z,21.51
2023-05-05T13:41:32.333Z,21.66
2023-05-05T13:43:58.981Z,21.97
2023-05-05T13:46:25.391Z,21.91
2023-05-05T13:48:56.005Z,21.92
2023-05-05T13:51:23.242Z,21.74
2023-05-05T13:53:49.588Z,21.55
2023-05-05T13:56:16.396Z,21.31
2023-05-05T13:58:43.176Z,21.12
2023-05-05T14:01:10.434Z,21.40
2023-05-05T14:03:37.168Z,21.59
2023-05-05T14:06:03.517Z,21.80
2023-05-05T14:08:29.961Z,21.85
2023-05-05T14:10:56.428Z,21.56
2023-05-05T14:13:23.122Z,21.25
2023-05-05T14:15:49.557Z,21.27
2023-05-05T14:18:16.275Z,20.99
2023-05-05T14:20:42.636Z,21.01
2023-05-05T14:23:09.373Z,21.12
2023-05-05T14:25:35.694Z,21.34
2023-05-05T14:28:02.168Z,21.37
2023-05-05T14:30:29.038Z,21.26
2023-05-05T14:32:55.868Z,21.25
2023-05-05T14:35:22.377Z,20.92
2023-05-05T14:37:48.855Z,20.66
2023-05-05T14:40:15.643Z,20.63
2023-05-05T14:42:42.230Z,20.62
2023-05-05T14:45:09.926Z,20.70
2023-05-05T14:47:36.538Z,20.51
2023-05-05T14:50:03.231Z,20.59
2023-05-05T14:52:29.788Z,20.44
2023-05-05T14:54:56.261Z,20.41
2023-05-05T14:57:22.797Z,20.26
2023-05-05T14:59:49.552Z,20.05
2023-05-05T15:02:16.368Z,20.10
2023-05-05T15:04:42.782Z,20.01
2023-05-05T15:07:09.413Z,19.77
2023-05-05T15:09:36.076Z,19.73
2023-05-05T15:12:02.812Z,19.76
2023-05-05T15:14:29.138Z,19.60
2023-05-05T15:16:55.950Z,19.67
2023-05-05T15:19:22.679Z,19.63
2023-05-05T15:21:49.202Z,19.56
2023-05-05T15:24:15.734Z,19.70
2023-05-05T15:26:42.300Z,19.70
2023-05-05T15:29:08.805Z,19.59
2023-05-05T15:31:35.476Z,19.60
2023-05-05T15:34:02.172Z,19.55
2023-05-05T15:36:28.746Z,19.66
2023-05-05T15:38:55.635Z,19.62
2023-05-05T15:41:22.459Z,19.60
2023-05-05T15:43:48.951Z,19.71
2023-05-05T15:46:15.470Z,19.83
2023-05-05T15:48:41.935Z,19.85
2023-05-05T15:51:08.415Z,19.73
2023-05-05T15:53:35.187Z,19.44
2023-05-05T15:56:01.908Z,19.30
2023-05-05T15:58:28.847Z,19.13
2023-05-05T16:00:55.378Z,19.00
2023-05-05T16:03:22.260Z,18.89
2023-05-05T16:05:51.385Z,18.83
2023-05-05T16:08:18.090Z,18.85
2023-05-05T16:10:44.758Z,18.67
2023-05-05T16:13:11.595Z,18.70
2023-05-05T16:15:38.398Z,18.74
2023-05-05T16:18:04.937Z,18.79
2023-05-05T16:20:31.534Z,18.75
2023-05-05T16:22:58.441Z,18.62
2023-05-05T16:25:24.944Z,18.53
2023-05-05T16:27:51.633Z,18.45
2023-05-05T16:30:18.575Z,18.43
2023-05-05T16:32:45.071Z,18.44
2023-05-05T16:35:11.914Z,18.32
2023-05-05T16:37:39.877Z,18.17
2023-05-05T16:40:06.927Z,18.10
2023-05-05T16:42:33.728Z,17.99
2023-05-05T16:45:00.026Z,17.92
2023-05-05T16:47:26.850Z,17.95
2023-05-05T16:49:53.286Z,17.88
2023-05-05T16:52:20.139Z,17.88
2023-05-05T16:54:46.823Z,17.80
2023-05-05T16:57:13.279Z,17.71
2023-05-05T16:59:39.936Z,17.70
2023-05-05T17:02:06.447Z,17.61
2023-05-05T17:04:33.101Z,17.67
2023-05-05T17:06:59.937Z,17.55
2023-05-05T17:09:26.319Z,17.48
2023-05-05T17:11:53.076Z,17.46
2023-05-05T17:14:19.406Z,17.34
2023-05-05T17:16:46.183Z,17.28
2023-05-05T17:19:12.667Z,17.27
2023-05-05T17:21:39.143Z,17.18
2023-05-05T17:24:06.082Z,17.20
2023-05-05T17:26:32.509Z,17.07
2023-05-05T17:28:59.269Z,16.93
2023-05-05T17:31:26.937Z,16.85
2023-05-05T17:33:53.710Z,16.78
2023-05-05T17:36:20.284Z,16.74
2023-05-05T17:38:46.838Z,16.67
2023-05-05T17:41:13.485Z,16.63
2023-05-05T17:43:40.618Z,16.64
2023-05-05T17:46:07.123Z,16.52
2023-05-05T17:48:33.967Z,16.43
2023-05-05T17:51:00.413Z,16.36
2023-05-05T17:53:27.256Z,16.28
2023-05-05T17:55:53.865Z,16.24
2023-05-05T17:58:20.643Z,16.20
2023-05-05T18:00:47.363Z,16.16
2023-05-05T18:03:13.953Z,16.05
2023-05-05T18:05:40.460Z,15.94
2023-05-05T18:08:07.025Z,15.86
2023-05-05T18:10:33.801Z,15.82
2023-05-05T18:13:00.304Z,15.79
2023-05-05T18:15:26.834Z,15.70
2023-05-05T18:17:53.497Z,15.64
2023-05-05T18:20:19.992Z,15.63
2023-05-05T18:22:46.421Z,15.58
2023-05-05T18:25:13.366Z,15.55
2023-05-05T18:27:40.685Z,15.48
2023-05-05T18:30:08.026Z,15.43
2023-05-05T18:32:34.502Z,15.39
2023-05-05T18:35:01.103Z,15.29
2023-05-05T18:37:27.849Z,15.26
2023-05-05T18:39:56.565Z,15.19
2023-05-05T18:42:23.299Z,15.18
2023-05-05T18:44:49.941Z,15.16
2023-05-05T18:47:16.600Z,15.12
2023-05-05T18:49:43.379Z,15.07
2023-05-05T18:52:09.743Z,15.04
2023-05-05T18:54:37.799Z,14.93
2023-05-05T18:57:04.538Z,14.91
2023-05-05T18:59:30.991Z,14.84
2023-05-05T19:01:57.521Z,14.81
2023-05-05T19:04:30.621Z,14.79
2023-05-05T19:06:58.296Z,14.74
2023-05-05T19:09:25.032Z,14.72
2023-05-05T19:11:53.664Z,14.67
2023-05-05T19:14:20.103Z,14.70
2023-05-05T19:16:46.777Z,14.60
2023-05-05T19:19:13.359Z,14.59
2023-05-05T19:21:40.468Z,14.54
2023-05-05T19:24:08.765Z,14.50
2023-05-05T19:26:35.226Z,14.49
2023-05-05T19:29:01.814Z,14.45
2023-05-05T19:31:28.409Z,14.42
2023-05-05T19:34:02.602Z,14.36
2023-05-05T19:36:31.311Z,14.31
2023-05-05T19:39:00.967Z,14.25
2023-05-05T19:41:28.436Z,14.24
2023-05-05T19:43:55.172Z,14.14
2023-05-05T19:46:21.745Z,14.16
2023-05-05T19:48:48.463Z,14.03
2023-05-05T19:51:14.951Z,14.01
2023-05-05T19:53:41.389Z,13.97
2023-05-05T19:56:08.073Z,13.88
2023-05-05T19:59:01.514Z,13.84
2023-05-05T20:01:29.100Z,13.77
2023-05-05T20:03:56.492Z,13.80
2023-05-05T20:06:23.446Z,13.75
2023-05-05T20:08:50.120Z,13.74
2023-05-05T20:11:17.675Z,13.66
2023-05-05T20:13:44.403Z,13.63
2023-05-05T20:16:11.579Z,13.58
2023-05-05T20:18:38.323Z,13.49
2023-05-05T20:21:04.975Z,13.48
2023-05-05T20:23:32.095Z,13.43
2023-05-05T20:25:59.029Z,13.40
2023-05-05T20:28:25.926Z,13.38
2023-05-05T20:30:52.742Z,13.35
2023-05-05T20:33:19.280Z,13.36
2023-05-05T20:35:45.777Z,13.32
2023-05-05T20:38:12.282Z,13.32
2023-05-05T20:40:39.039Z,13.22
2023-05-05T20:43:05.623Z,13.20
2023-05-05T20:45:34.367Z,13.16
2023-05-05T20:48:01.452Z,13.16
2023-05-05T20:50:29.083Z,13.11
2023-05-05T20:52:55.939Z,13.07
2023-05-05T20:55:22.704Z,13.03
2023-05-05T20:57:49.358Z,13.04
2023-05-05T21:00:16.122Z,12.95
2023-05-05T21:02:42.812Z,12.95
2023-05-05T21:05:09.766Z,12.94
2023-05-05T21:07:36.397Z,12.92
2023-05-05T21:10:04.620Z,12.91
2023-05-05T21:12:33.251Z,12.88
2023-05-05T21:15:00.231Z,12.83
2023-05-05T21:17:27.606Z,12.83
2023-05-05T21:19:55.299Z,12.88
2023-05-05T21:22:22.323Z,12.78
2023-05-05T21:24:50.345Z,12.76
2023-05-05T21:27:16.830Z,12.71
2023-05-05T21:29:43.594Z,12.70
2023-05-05T21:32:11.170Z,12.72
2023-05-05T21:34:39.212Z,12.68
2023-05-05T21:37:06.366Z,12.65
2023-05-05T21:39:32.841Z,12.65
2023-05-05T21:42:00.878Z,12.63
2023-05-05T21:44:27.719Z,12.62
2023-05-05T21:46:55.513Z,12.63
2023-05-05T21:49:22.109Z,12.62
2023-05-05T21:51:48.798Z,12.57
2023-05-05T21:54:15.543Z,12.51
2023-05-05T21:56:42.299Z,12.55
2023-05-05T21:59:09.052Z,12.52
2023-05-05T22:01:36.421Z,12.50
2023-05-05T22:04:03.198Z,12.50
2023-05-05T22:06:29.989Z,12.44
2023-05-05T22:08:56.747Z,12.40
2023-05-05T22:11:23.899Z,12.38
2023-05-05T22:13:50.202Z,12.34
2023-05-05T22:16:16.712Z,12.35
2023-05-05T22:18:43.820Z,12.33
2023-05-05T22:21:10.330Z,12.32
2023-05-05T22:23:36.907Z,12.35
2023-05-05T22:26:03.411Z,12.27
2023-05-05T22:28:30.096Z,12.26
2023-05-05T22:30:58.232Z,12.27
2023-05-05T22:33:24.913Z,12.26
2023-05-05T22:35:51.395Z,12.24
2023-05-05T22:38:18.034Z,12.23
2023-05-05T22:40:44.993Z,12.13
2023-05-05T22:43:13.985Z,12.09
2023-05-05T22:45:43.859Z,12.08
2023-05-05T22:48:10.440Z,12.02
2023-05-05T22:50:37.445Z,11.97
2023-05-05T22:53:04.278Z,11.98
2023-05-05T22:55:30.671Z,11.94
2023-05-05T22:57:57.094Z,11.90
2023-05-05T23:00:24.225Z,11.89
2023-05-05T23:02:50.686Z,11.97
2023-05-05T23:05:17.598Z,11.88
2023-05-05T23:07:44.036Z,11.86
2023-05-05T23:10:10.947Z,11.83
2023-05-05T23:12:37.586Z,11.80
2023-05-05T23:15:05.300Z,11.81
2023-05-05T23:17:31.921Z,11.78
2023-05-05T23:19:58.428Z,11.76
2023-05-05T23:22:24.906Z,11.69
2023-05-05T23:24:51.565Z,11.60
2023-05-05T23:27:18.397Z,11.54
2023-05-05T23:29:44.837Z,11.56
2023-05-05T23:32:11.599Z,11.50
2023-05-05T23:34:38.268Z,11.41
2023-05-05T23:37:06.157Z,11.41
2023-05-05T23:39:36.044Z,11.36
2023-05-05T23:42:02.430Z,11.32
2023-05-05T23:44:29.458Z,11.29
2023-05-05T23:46:55.856Z,11.26
2023-05-05T23:49:22.543Z,11.12
2023-05-05T23:51:50.141Z,11.00
2023-05-05T23:54:16.648Z,10.88
2023-05-05T23:56:43.523Z,10.75
2023-05-05T23:59:10.393Z,10.67
